createdAt,value
2022-10-11T00:01:33.459Z,11.77
2022-10-11T00:04:18.651Z,14.85
2022-10-11T00:07:04.423Z,12.07
2022-10-11T00:09:49.514Z,12.52
2022-10-11T00:12:35.338Z,14.95
2022-10-11T00:15:21.915Z,17.40
2022-10-11T00:18:07.552Z,12.80
2022-10-11T00:21:06.630Z,13.43
2022-10-11T00:23:52.109Z,11.70
2022-10-11T00:26:37.452Z,16.08
2022-10-11T00:29:22.731Z,20.88
2022-10-11T00:32:08.019Z,23.98
2022-10-11T00:34:53.476Z,20.38
2022-10-11T00:37:39.511Z,50.70
2022-10-11T00:40:25.012Z,51.30
2022-10-11T00:43:20.250Z,24.85
2022-10-11T00:46:07.911Z,16.23
2022-10-11T00:48:59.489Z,12.48
2022-10-11T00:51:50.315Z,14.65
2022-10-11T00:54:39.396Z,12.63
2022-10-11T00:57:27.909Z,11.55
2022-10-11T01:00:14.416Z,11.45
2022-10-11T01:03:01.298Z,12.45
2022-10-11T01:05:46.231Z,12.20
2022-10-11T01:08:32.291Z,10.90
2022-10-11T01:11:21.125Z,12.88
2022-10-11T01:14:27.927Z,11.55
2022-10-11T01:17:43.416Z,10.40
2022-10-11T01:20:38.645Z,11.45
2022-10-11T01:23:32.578Z,12.40
2022-10-11T01:26:40.208Z,15.30
2022-10-11T01:29:31.809Z,10.27
2022-10-11T01:32:18.539Z,10.13
2022-10-11T01:35:46.579Z,13.48
2022-10-11T01:38:49.293Z,10.40
2022-10-11T01:41:42.697Z,9.00
2022-10-11T01:44:30.308Z,10.68
2022-10-11T01:47:20.188Z,14.60
2022-10-11T01:50:07.928Z,14.23
2022-10-11T01:52:54.816Z,11.80
2022-10-11T01:55:55.157Z,8.88
2022-10-11T01:59:11.186Z,10.85
2022-10-11T02:02:23.859Z,13.35
2022-10-11T02:05:36.562Z,12.68
2022-10-11T02:11:32.929Z,12.43
2022-10-11T02:14:24.830Z,12.70
2022-10-11T02:17:20.027Z,14.35
2022-10-11T02:20:11.384Z,15.13
2022-10-11T02:23:02.385Z,10.63
2022-10-11T02:25:48.995Z,11.85
2022-10-11T02:28:37.954Z,10.05
2022-10-11T02:31:24.448Z,14.38
2022-10-11T02:34:21.928Z,14.85
2022-10-11T02:37:30.392Z,22.23
2022-10-11T02:40:28.986Z,17.63
2022-10-11T02:43:24.174Z,17.02
2022-10-11T02:46:10.235Z,12.98
2022-10-11T02:48:55.383Z,11.02
2022-10-11T02:51:40.933Z,15.68
2022-10-11T02:54:27.091Z,13.48
2022-10-11T02:57:12.763Z,11.18
2022-10-11T02:59:57.996Z,12.30
2022-10-11T03:02:43.558Z,13.60
2022-10-11T03:05:28.944Z,11.27
2022-10-11T03:08:16.297Z,15.60
2022-10-11T03:11:01.377Z,19.05
2022-10-11T03:13:46.751Z,15.93
2022-10-11T03:16:32.276Z,12.40
2022-10-11T03:19:19.438Z,11.25
2022-10-11T03:22:05.127Z,14.75
2022-10-11T03:24:50.430Z,12.05
2022-10-11T03:27:36.121Z,14.30
2022-10-11T03:30:21.626Z,10.95
2022-10-11T03:33:06.937Z,13.13
2022-10-11T03:35:52.372Z,12.23
2022-10-11T03:38:37.720Z,15.70
2022-10-11T03:41:23.103Z,15.25
2022-10-11T03:44:08.652Z,17.98
2022-10-11T03:46:54.107Z,15.77
2022-10-11T03:49:43.473Z,14.32
2022-10-11T03:52:28.983Z,13.85
2022-10-11T03:55:14.283Z,11.90
2022-10-11T03:57:59.728Z,12.63
2022-10-11T04:00:45.226Z,17.02
2022-10-11T04:03:30.847Z,14.75
2022-10-11T04:06:16.345Z,17.58
2022-10-11T04:09:02.127Z,14.32
2022-10-11T04:11:47.270Z,17.70
2022-10-11T04:14:32.554Z,13.68
2022-10-11T04:17:18.147Z,12.57
2022-10-11T04:20:03.913Z,15.65
2022-10-11T04:22:49.175Z,11.85
2022-10-11T04:25:34.695Z,14.50
2022-10-11T04:28:20.050Z,13.15
2022-10-11T04:31:06.581Z,16.58
2022-10-11T04:33:51.909Z,16.70
2022-10-11T04:36:38.952Z,13.15
2022-10-11T04:39:25.163Z,13.27
2022-10-11T04:42:10.435Z,13.52
2022-10-11T04:44:55.693Z,15.45
2022-10-11T04:47:41.551Z,12.10
2022-10-11T04:50:26.655Z,14.93
2022-10-11T04:53:12.116Z,12.82
2022-10-11T04:56:01.057Z,13.40
2022-10-11T04:58:51.840Z,16.70
2022-10-11T05:01:37.170Z,12.68
2022-10-11T05:04:22.638Z,14.15
2022-10-11T05:07:07.914Z,11.20
2022-10-11T05:09:53.419Z,12.63
2022-10-11T05:12:38.864Z,13.90
2022-10-11T05:15:24.404Z,12.55
2022-10-11T05:18:09.809Z,16.52
2022-10-11T05:21:07.235Z,13.15
2022-10-11T05:23:53.944Z,14.05
2022-10-11T05:26:39.156Z,15.68
2022-10-11T05:29:24.388Z,19.58
2022-10-11T05:32:09.646Z,10.40
2022-10-11T05:34:55.010Z,14.50
2022-10-11T05:37:40.504Z,13.93
2022-10-11T05:40:25.863Z,16.70
2022-10-11T05:43:11.422Z,14.70
2022-10-11T05:45:56.649Z,19.70
2022-10-11T05:48:41.874Z,20.35
2022-10-11T05:51:27.264Z,20.63
2022-10-11T05:54:12.611Z,28.98
2022-10-11T05:56:57.999Z,21.10
2022-10-11T05:59:43.397Z,17.65
2022-10-11T06:02:28.811Z,26.95
2022-10-11T06:05:14.413Z,22.23
2022-10-11T06:07:59.669Z,19.45
2022-10-11T06:10:45.102Z,20.27
2022-10-11T06:13:30.672Z,21.27
2022-10-11T06:16:16.223Z,25.30
2022-10-11T06:19:01.392Z,27.60
2022-10-11T06:21:47.733Z,26.38
2022-10-11T06:24:33.222Z,22.33
2022-10-11T06:27:18.680Z,21.30
2022-10-11T06:30:05.432Z,18.80
2022-10-11T06:32:50.394Z,23.95
2022-10-11T06:35:35.793Z,22.23
2022-10-11T06:38:21.175Z,23.85
2022-10-11T06:41:23.516Z,27.83
2022-10-11T06:44:14.454Z,21.35
2022-10-11T06:46:59.889Z,17.70
2022-10-11T06:49:45.235Z,22.77
2022-10-11T06:52:30.766Z,21.75
2022-10-11T06:55:16.245Z,15.45
2022-10-11T06:58:01.623Z,14.30
2022-10-11T07:00:47.348Z,18.38
2022-10-11T07:03:33.211Z,17.38
2022-10-11T07:06:24.456Z,13.93
2022-10-11T07:09:09.966Z,15.70
2022-10-11T07:11:55.624Z,15.85
2022-10-11T07:14:40.710Z,17.35
2022-10-11T07:17:26.138Z,17.38
2022-10-11T07:20:12.357Z,20.40
2022-10-11T07:22:57.746Z,14.77
2022-10-11T07:25:42.943Z,15.70
2022-10-11T07:28:31.764Z,14.80
2022-10-11T07:31:19.828Z,16.52
2022-10-11T07:34:05.236Z,11.68
2022-10-11T07:36:50.674Z,14.10
2022-10-11T07:39:36.432Z,9.75
2022-10-11T07:42:22.448Z,16.67
2022-10-11T07:45:08.051Z,16.80
2022-10-11T07:47:55.916Z,10.88
2022-10-11T07:50:41.368Z,13.00
2022-10-11T07:53:26.627Z,14.48
2022-10-11T07:56:14.070Z,14.82
2022-10-11T07:59:01.504Z,15.40
2022-10-11T08:01:46.717Z,15.20
2022-10-11T08:04:32.198Z,15.40
2022-10-11T08:07:17.622Z,17.08
2022-10-11T08:10:04.695Z,15.93
2022-10-11T08:12:50.113Z,11.70
2022-10-11T08:15:35.642Z,14.23
2022-10-11T08:18:21.136Z,15.00
2022-10-11T08:21:11.475Z,11.77
2022-10-11T08:23:56.575Z,14.05
2022-10-11T08:26:43.512Z,10.35
2022-10-11T08:29:28.802Z,11.88
2022-10-11T08:32:14.490Z,14.23
2022-10-11T08:34:59.919Z,11.75
2022-10-11T08:37:45.301Z,12.68
2022-10-11T08:40:35.138Z,12.68
2022-10-11T08:43:36.416Z,16.48
2022-10-11T08:46:28.320Z,17.35
2022-10-11T08:49:15.236Z,7.45
2022-10-11T08:52:04.562Z,13.18
2022-10-11T08:54:57.664Z,19.75
2022-10-11T08:57:48.551Z,8.27
2022-10-11T09:00:36.384Z,7.28
2022-10-11T09:03:42.427Z,16.38
2022-10-11T09:06:53.733Z,13.48
2022-10-11T09:10:26.397Z,14.80
2022-10-11T09:13:31.395Z,12.38
2022-10-11T09:16:42.637Z,9.80
2022-10-11T09:19:36.573Z,19.02
2022-10-11T09:22:39.561Z,12.75
2022-10-11T09:25:51.076Z,15.23
2022-10-11T09:28:44.971Z,10.45
2022-10-11T09:31:31.281Z,10.48
2022-10-11T09:34:16.456Z,16.92
2022-10-11T09:37:29.998Z,14.35
2022-10-11T09:40:53.814Z,9.02
2022-10-11T09:43:39.475Z,7.85
2022-10-11T09:46:43.340Z,11.85
2022-10-11T09:49:35.106Z,8.30
2022-10-11T09:52:22.814Z,7.30
2022-10-11T09:55:28.071Z,10.98
2022-10-11T09:58:32.303Z,11.70
2022-10-11T10:01:25.574Z,13.15
2022-10-11T10:04:13.871Z,10.98
2022-10-11T10:07:13.130Z,7.97
2022-10-11T10:09:58.895Z,11.90
2022-10-11T10:12:44.120Z,11.23
2022-10-11T10:15:36.585Z,14.18
2022-10-11T10:18:42.404Z,8.88
2022-10-11T10:21:34.959Z,15.32
2022-10-11T10:27:10.997Z,16.15
2022-10-11T10:30:08.631Z,11.30
2022-10-11T10:33:06.968Z,6.35
2022-10-11T10:36:14.215Z,10.88
2022-10-11T10:39:10.103Z,5.35
2022-10-11T10:41:55.956Z,12.93
2022-10-11T10:44:42.730Z,15.10
2022-10-11T10:47:59.320Z,13.40
2022-10-11T10:50:58.764Z,8.10
2022-10-11T10:53:49.627Z,11.27
2022-10-11T10:56:44.162Z,9.15
2022-10-11T10:59:47.527Z,9.82
2022-10-11T11:03:03.143Z,9.02
2022-10-11T11:06:07.663Z,9.68
2022-10-11T11:09:20.486Z,11.90
2022-10-11T11:12:37.372Z,11.63
2022-10-11T11:15:37.947Z,15.65
2022-10-11T11:18:42.088Z,14.27
2022-10-11T11:21:58.157Z,12.43
2022-10-11T11:24:46.361Z,7.40
2022-10-11T11:28:00.338Z,5.82
2022-10-11T11:30:54.407Z,14.07
2022-10-11T11:33:56.507Z,9.85
2022-10-11T11:36:53.252Z,12.32
2022-10-11T11:39:46.032Z,8.52
2022-10-11T11:42:40.379Z,11.90
2022-10-11T11:45:32.952Z,8.07
2022-10-11T11:48:21.328Z,12.65
2022-10-11T11:51:14.086Z,10.40
2022-10-11T11:54:06.551Z,11.55
2022-10-11T12:00:04.193Z,18.73
2022-10-11T12:03:03.744Z,14.18
2022-10-11T12:06:15.012Z,11.63
2022-10-11T12:09:24.021Z,7.18
2022-10-11T12:12:36.145Z,9.20
2022-10-11T12:15:25.897Z,13.13
2022-10-11T12:18:16.464Z,10.90
2022-10-11T12:21:18.682Z,9.43
2022-10-11T12:24:50.093Z,13.93
2022-10-11T12:27:45.193Z,13.55
2022-10-11T12:30:50.631Z,11.98
2022-10-11T12:33:38.911Z,13.80
2022-10-11T12:36:46.614Z,10.85
2022-10-11T12:39:55.098Z,14.80
2022-10-11T12:43:12.287Z,11.35
2022-10-11T12:46:17.487Z,12.30
2022-10-11T12:49:40.569Z,14.30
2022-10-11T12:55:33.432Z,22.75
2022-10-11T12:58:33.920Z,9.15
2022-10-11T13:01:24.551Z,7.72
2022-10-11T13:04:11.740Z,6.95
2022-10-11T13:07:15.418Z,12.38
2022-10-11T13:10:00.682Z,7.57
2022-10-11T13:12:47.862Z,11.02
2022-10-11T13:15:34.711Z,10.45
2022-10-11T13:18:29.829Z,18.27
2022-10-11T13:21:40.457Z,11.93
2022-10-11T13:24:29.695Z,12.25
2022-10-11T13:27:25.270Z,13.82
2022-10-11T13:30:39.242Z,10.63
2022-10-11T13:33:36.119Z,16.08
2022-10-11T13:36:24.672Z,14.98
2022-10-11T13:39:31.293Z,10.02
2022-10-11T13:42:30.562Z,12.57
2022-10-11T13:45:20.878Z,12.73
2022-10-11T13:48:15.047Z,22.23
2022-10-11T13:51:30.182Z,14.27
2022-10-11T13:54:15.734Z,13.25
2022-10-11T13:57:01.459Z,10.45
2022-10-11T13:59:46.801Z,14.43
2022-10-11T14:02:32.698Z,10.00
2022-10-11T14:05:27.681Z,15.40
2022-10-11T14:08:38.566Z,12.55
2022-10-11T14:11:40.033Z,12.68
2022-10-11T14:14:34.501Z,10.90
2022-10-11T14:17:22.387Z,12.55
2022-10-11T14:20:21.698Z,12.77
2022-10-11T14:23:07.128Z,9.00
2022-10-11T14:25:53.101Z,11.25
2022-10-11T14:28:38.703Z,9.65
2022-10-11T14:31:24.445Z,18.45
2022-10-11T14:34:20.608Z,15.55
2022-10-11T14:37:05.756Z,13.55
2022-10-11T14:39:51.643Z,18.42
2022-10-11T14:42:36.705Z,13.68
2022-10-11T14:45:22.506Z,12.68
2022-10-11T14:48:07.900Z,11.15
2022-10-11T14:50:58.515Z,11.13
2022-10-11T14:53:46.332Z,7.57
2022-10-11T14:56:31.398Z,12.35
2022-10-11T14:59:19.851Z,9.80
2022-10-11T15:02:07.769Z,11.95
2022-10-11T15:04:52.935Z,15.80
2022-10-11T15:07:38.318Z,12.90
2022-10-11T15:10:35.163Z,18.20
2022-10-11T15:13:20.170Z,9.00
2022-10-11T15:16:06.388Z,16.55
2022-10-11T15:18:51.912Z,12.25
2022-10-11T15:21:36.996Z,11.70
2022-10-11T15:24:22.573Z,8.95
2022-10-11T15:27:07.995Z,12.63
2022-10-11T15:29:53.275Z,9.82
2022-10-11T15:32:38.697Z,15.18
2022-10-11T15:35:25.795Z,9.45
2022-10-11T15:38:22.705Z,10.40
2022-10-11T15:41:12.861Z,16.23
2022-10-11T15:43:58.062Z,16.30
2022-10-11T15:46:43.782Z,13.50
2022-10-11T15:49:28.827Z,12.05
2022-10-11T15:52:14.293Z,7.55
2022-10-11T15:55:03.616Z,13.15
2022-10-11T15:57:48.951Z,6.53
2022-10-11T16:00:34.509Z,15.60
2022-10-11T16:03:21.386Z,9.23
2022-10-11T16:06:07.751Z,16.08
2022-10-11T16:08:53.540Z,12.30
2022-10-11T16:11:38.631Z,9.50
2022-10-11T16:14:23.992Z,10.77
2022-10-11T16:17:09.378Z,13.23
2022-10-11T16:19:54.668Z,12.35
2022-10-11T16:22:40.220Z,11.32
2022-10-11T16:25:25.614Z,8.82
2022-10-11T16:28:11.338Z,10.38
2022-10-11T16:30:57.032Z,11.40
2022-10-11T16:33:48.212Z,8.68
2022-10-11T16:36:36.433Z,12.90
2022-10-11T16:39:22.248Z,10.70
2022-10-11T16:42:07.555Z,13.43
2022-10-11T16:44:53.373Z,9.95
2022-10-11T16:47:38.800Z,11.80
2022-10-11T16:50:23.898Z,13.57
2022-10-11T16:53:09.073Z,13.85
2022-10-11T16:55:54.428Z,7.05
2022-10-11T16:58:39.818Z,10.60
2022-10-11T17:01:26.497Z,11.80
2022-10-11T17:04:13.010Z,14.30
2022-10-11T17:06:58.647Z,12.43
2022-10-11T17:09:45.105Z,11.63
2022-10-11T17:12:31.956Z,13.50
2022-10-11T17:15:17.170Z,12.45
2022-10-11T17:18:03.268Z,9.02
2022-10-11T17:20:48.416Z,9.18
2022-10-11T17:23:35.293Z,10.50
2022-10-11T17:26:26.277Z,9.30
2022-10-11T17:29:16.223Z,13.50
2022-10-11T17:32:01.652Z,11.77
2022-10-11T17:34:46.731Z,9.48
2022-10-11T17:37:32.019Z,12.48
2022-10-11T17:40:17.661Z,10.68
2022-10-11T17:43:02.959Z,14.65
2022-10-11T17:45:55.724Z,20.40
2022-10-11T17:51:27.333Z,20.20
2022-10-11T17:54:12.830Z,15.90
2022-10-11T17:56:58.775Z,9.95
2022-10-11T17:59:44.086Z,10.77
2022-10-11T18:02:29.701Z,10.70
2022-10-11T18:05:16.682Z,14.68
2022-10-11T18:08:02.070Z,8.35
2022-10-11T18:10:47.797Z,14.20
2022-10-11T18:13:33.322Z,10.10
2022-10-11T18:16:21.417Z,14.15
2022-10-11T18:19:10.875Z,8.57
2022-10-11T18:21:56.056Z,11.20
2022-10-11T18:24:41.419Z,12.10
2022-10-11T18:27:28.208Z,9.73
2022-10-11T18:30:14.553Z,11.00
2022-10-11T18:33:00.013Z,14.50
2022-10-11T18:35:45.327Z,11.07
2022-10-11T18:38:30.766Z,15.73
2022-10-11T18:41:19.182Z,8.52
2022-10-11T18:44:06.726Z,7.60
2022-10-11T18:46:52.631Z,7.35
2022-10-11T18:49:37.802Z,7.50
2022-10-11T18:52:23.185Z,11.52
2022-10-11T18:55:08.738Z,9.43
2022-10-11T18:57:54.188Z,12.13
2022-10-11T19:00:41.005Z,9.05
2022-10-11T19:03:29.337Z,11.75
2022-10-11T19:06:18.164Z,11.95
2022-10-11T19:09:13.083Z,14.13
2022-10-11T19:11:58.780Z,7.55
2022-10-11T19:14:44.141Z,7.95
2022-10-11T19:17:30.048Z,10.98
2022-10-11T19:20:15.438Z,12.48
2022-10-11T19:23:00.902Z,7.35
2022-10-11T19:25:46.289Z,10.57
2022-10-11T19:28:31.808Z,8.50
2022-10-11T19:31:17.173Z,7.35
2022-10-11T19:34:02.988Z,5.95
2022-10-11T19:36:50.689Z,10.35
2022-10-11T19:39:35.959Z,14.40
2022-10-11T19:42:21.299Z,9.15
2022-10-11T19:45:07.209Z,9.77
2022-10-11T19:47:52.663Z,9.48
2022-10-11T19:50:38.175Z,5.18
2022-10-11T19:53:24.087Z,10.40
2022-10-11T19:56:12.850Z,16.48
2022-10-11T19:58:59.077Z,8.45
2022-10-11T20:01:48.070Z,7.57
2022-10-11T20:04:52.134Z,11.13
2022-10-11T20:07:38.001Z,8.18
2022-10-11T20:10:23.294Z,7.88
2022-10-11T20:13:11.570Z,8.63
2022-10-11T20:15:57.918Z,9.32
2022-10-11T20:18:43.915Z,9.00
2022-10-11T20:21:30.220Z,8.35
2022-10-11T20:24:15.786Z,10.20
2022-10-11T20:27:03.661Z,12.38
2022-10-11T20:29:49.982Z,16.10
2022-10-11T20:32:35.169Z,8.48
2022-10-11T20:35:20.535Z,7.07
2022-10-11T20:38:05.920Z,7.60
2022-10-11T20:40:51.405Z,14.43
2022-10-11T20:43:36.884Z,14.40
2022-10-11T20:46:31.240Z,19.23
2022-10-11T20:49:16.563Z,10.63
2022-10-11T20:52:02.030Z,8.13
2022-10-11T20:54:47.401Z,9.52
2022-10-11T20:57:33.049Z,11.07
2022-10-11T21:00:18.869Z,8.75
2022-10-11T21:03:04.203Z,13.48
2022-10-11T21:06:00.065Z,9.45
2022-10-11T21:08:45.291Z,5.43
2022-10-11T21:11:33.470Z,11.18
2022-10-11T21:14:18.817Z,7.95
2022-10-11T21:17:04.217Z,9.65
2022-10-11T21:19:49.510Z,8.20
2022-10-11T21:22:35.268Z,6.82
2022-10-11T21:25:21.102Z,6.25
2022-10-11T21:28:07.221Z,8.07
2022-10-11T21:30:52.302Z,9.43
2022-10-11T21:33:38.278Z,8.52
2022-10-11T21:36:24.918Z,10.77
2022-10-11T21:39:10.498Z,6.63
2022-10-11T21:41:55.426Z,5.43
2022-10-11T21:44:43.180Z,7.72
2022-10-11T21:47:28.545Z,8.10
2022-10-11T21:50:13.839Z,9.55
2022-10-11T21:52:59.363Z,13.30
2022-10-11T21:55:44.823Z,10.40
2022-10-11T21:58:30.143Z,7.88
2022-10-11T22:01:16.635Z,10.65
2022-10-11T22:04:02.132Z,10.70
2022-10-11T22:06:47.295Z,10.50
2022-10-11T22:09:34.954Z,12.73
2022-10-11T22:12:20.236Z,9.43
2022-10-11T22:15:06.285Z,8.68
2022-10-11T22:17:51.890Z,5.85
2022-10-11T22:20:37.024Z,8.55
2022-10-11T22:23:22.396Z,6.70
2022-10-11T22:26:10.362Z,11.00
2022-10-11T22:28:55.462Z,11.90
2022-10-11T22:31:41.272Z,7.00
2022-10-11T22:34:31.450Z,12.73
2022-10-11T22:37:17.027Z,10.98
2022-10-11T22:40:02.581Z,8.35
2022-10-11T22:42:47.755Z,8.95
2022-10-11T22:45:33.272Z,11.27
2022-10-11T22:48:18.783Z,10.57
2022-10-11T22:51:04.468Z,8.63
2022-10-11T22:53:49.602Z,11.50
2022-10-11T22:56:34.823Z,12.57
2022-10-11T22:59:20.280Z,8.88
2022-10-11T23:02:05.551Z,12.30
2022-10-11T23:04:52.157Z,8.32
2022-10-11T23:07:37.689Z,11.32
2022-10-11T23:10:23.092Z,8.55
2022-10-11T23:13:08.749Z,6.15
2022-10-11T23:15:54.074Z,9.02
2022-10-11T23:18:40.135Z,11.30
2022-10-11T23:21:26.028Z,10.68
2022-10-11T23:24:11.298Z,10.30
2022-10-11T23:26:56.594Z,11.77
2022-10-11T23:29:42.020Z,14.27
2022-10-11T23:32:27.356Z,11.13
2022-10-11T23:35:12.670Z,13.25
2022-10-11T23:37:58.037Z,9.77
2022-10-11T23:40:43.762Z,15.95
2022-10-11T23:43:29.243Z,11.27
2022-10-11T23:46:14.984Z,10.27
2022-10-11T23:49:00.154Z,8.68
2022-10-11T23:51:45.392Z,14.65
2022-10-11T23:54:30.686Z,10.90
2022-10-11T23:57:16.011Z,13.40
